Archival Weather

Rochelle Muni/Koritz Fld

Rochelle, Illinois (KRPJ)

Report from: Sunday, February 5, 2023 9:15 PM CST
Current time: Tuesday, July 16, 2024 10:03 AM CDT

Current weather – Weather history – Daily summaries
Weather forecast

Temperature-5.3°C (22.5°F)
Dew point-5.4°C (22.3°F)
Winds Calm
Visibility10 mi. (16.1 km)
Clouds Sky clear
Altimeter30.13 in.Hg (1020 mB)
Relative humidity99 %
Density altitude-2,689 ft. (-819 m)
Remarks Fully automated report
Automated weather observing station with precipitation discriminator
Lightning detection system not operating
Flight conditions Visual Meteorological Conditions
Raw dataKRPJ 060315Z AUTO 00000KT 10SM CLR M05/M05 A3013 RMK AO2 T10531054 TSNO
An error has occurred. This application may no longer respond until reloaded. Reload 🗙